KONZ

Grosse Ile Municipal Airport

Detroit/Grosse Ile, Michigan, USA
METAR KONZ 220515Z AUTO 05007KT 10SM CLR 19/15 A2984 RMK AO2 T01860148
Observed Flight Rules
Jun-22 @ 05:15 UTC (25 minutes ago) Visual Flight Rules
Wind Visibility Clouds
50° at 7 knots 10 miles
  • Clear skies
Temperatures Readings
Current 19°C / 66°F
Dewpoint 15°C / 59°F
Humidity 78%
Altimeter 29.84" Hg
Pressure 1010 hPa
Elevation 180
METAR KONZ 220515Z AUTO 05007KT 10SM CLR 19/15 A2984 RMK AO2 T01860148
Observed Flight Rules
Jun-22 @ 05:15 UTC
(25 minutes ago)
VFR
Wind Visibility
50° at 7 knots 10 miles
Clouds
  • Clear skies
Temperature Dewpoint
19°C / 66°F 15°C / 59°F
Humidity Altimeter Pressure
78% 29.84" Hg 1010 hPa